createdAt,value
2023-05-26T00:00:49.528Z,5.02
2023-05-26T00:03:18.263Z,5.07
2023-05-26T00:05:46.163Z,5.11
2023-05-26T00:08:13.210Z,5.16
2023-05-26T00:10:40.046Z,5.23
2023-05-26T00:13:06.874Z,5.20
2023-05-26T00:15:33.480Z,5.22
2023-05-26T00:18:02.926Z,5.24
2023-05-26T00:20:30.391Z,5.28
2023-05-26T00:22:57.123Z,5.22
2023-05-26T00:25:23.972Z,5.26
2023-05-26T00:27:50.933Z,5.10
2023-05-26T00:30:17.925Z,5.30
2023-05-26T00:32:44.830Z,5.32
2023-05-26T00:35:14.595Z,5.32
2023-05-26T00:37:42.323Z,5.31
2023-05-26T00:40:09.465Z,5.32
2023-05-26T00:42:36.191Z,5.37
2023-05-26T00:45:02.961Z,5.35
2023-05-26T00:47:29.737Z,5.34
2023-05-26T00:49:56.612Z,5.35
2023-05-26T00:52:23.945Z,5.38
2023-05-26T00:54:50.912Z,5.47
2023-05-26T00:57:18.078Z,5.49
2023-05-26T00:59:45.149Z,5.47
2023-05-26T01:02:13.300Z,5.42
2023-05-26T01:04:41.597Z,5.42
2023-05-26T01:07:10.552Z,5.36
2023-05-26T01:09:37.347Z,5.27
2023-05-26T01:12:12.478Z,5.20
2023-05-26T01:14:55.753Z,5.24
2023-05-26T01:17:31.645Z,5.22
2023-05-26T01:20:01.234Z,5.30
2023-05-26T01:22:52.346Z,5.37
2023-05-26T01:25:46.052Z,5.25
2023-05-26T01:28:19.565Z,5.41
2023-05-26T01:30:48.259Z,5.35
2023-05-26T01:33:15.482Z,5.52
2023-05-26T01:35:42.627Z,5.53
2023-05-26T01:38:09.526Z,5.51
2023-05-26T01:40:38.920Z,5.57
2023-05-26T01:43:12.687Z,5.59
2023-05-26T01:45:49.961Z,5.60
2023-05-26T01:48:19.318Z,5.61
2023-05-26T01:50:52.071Z,5.75
2023-05-26T01:53:22.239Z,5.75
2023-05-26T01:55:53.055Z,5.77
2023-05-26T01:58:21.223Z,5.79
2023-05-26T02:00:48.756Z,5.31
2023-05-26T02:03:16.982Z,6.03
2023-05-26T02:05:44.179Z,6.16
2023-05-26T02:08:12.156Z,6.17
2023-05-26T02:10:40.974Z,6.24
2023-05-26T02:13:07.863Z,6.22
2023-05-26T02:15:34.737Z,6.20
2023-05-26T02:18:01.741Z,6.26
2023-05-26T02:20:28.585Z,6.28
2023-05-26T02:22:55.363Z,6.30
2023-05-26T02:25:22.015Z,6.35
2023-05-26T02:27:48.658Z,6.30
2023-05-26T02:30:15.339Z,6.28
2023-05-26T02:32:42.986Z,6.24
2023-05-26T02:35:10.880Z,6.32
2023-05-26T02:37:37.645Z,6.31
2023-05-26T02:40:05.867Z,6.30
2023-05-26T02:42:32.562Z,6.32
2023-05-26T02:44:59.239Z,6.29
2023-05-26T02:47:26.014Z,6.38
2023-05-26T02:49:52.681Z,6.34
2023-05-26T02:52:19.302Z,6.33
2023-05-26T02:54:45.997Z,6.33
2023-05-26T02:57:12.839Z,6.31
2023-05-26T02:59:39.513Z,6.29
2023-05-26T03:02:06.271Z,6.27
2023-05-26T03:04:33.459Z,6.27
2023-05-26T03:07:00.404Z,6.25
2023-05-26T03:09:27.102Z,6.29
2023-05-26T03:11:53.709Z,6.28
2023-05-26T03:14:21.565Z,6.28
2023-05-26T03:16:48.337Z,6.22
2023-05-26T03:19:15.063Z,6.28
2023-05-26T03:21:48.533Z,6.27
2023-05-26T03:24:17.143Z,6.32
2023-05-26T03:26:43.747Z,6.35
2023-05-26T03:29:10.810Z,6.41
2023-05-26T03:31:38.023Z,6.49
2023-05-26T03:34:04.759Z,6.57
2023-05-26T03:36:31.410Z,6.65
2023-05-26T03:38:57.997Z,6.75
2023-05-26T03:41:24.813Z,6.80
2023-05-26T03:43:51.629Z,6.93
2023-05-26T03:46:18.341Z,7.08
2023-05-26T03:48:45.092Z,7.19
2023-05-26T03:51:15.005Z,7.27
2023-05-26T03:53:43.111Z,7.31
2023-05-26T03:56:12.620Z,7.50
2023-05-26T03:58:39.303Z,7.63
2023-05-26T04:01:06.147Z,7.76
2023-05-26T04:03:32.943Z,7.86
2023-05-26T04:06:01.239Z,7.92
2023-05-26T04:08:28.463Z,8.04
2023-05-26T04:10:56.201Z,8.13
2023-05-26T04:13:22.841Z,8.24
2023-05-26T04:15:49.558Z,8.27
2023-05-26T04:18:16.236Z,8.32
2023-05-26T04:20:44.435Z,8.37
2023-05-26T04:23:12.080Z,8.44
2023-05-26T04:25:38.809Z,8.57
2023-05-26T04:28:05.521Z,8.69
2023-05-26T04:30:32.266Z,8.73
2023-05-26T04:32:59.862Z,8.68
2023-05-26T04:35:26.565Z,8.67
2023-05-26T04:37:54.596Z,8.72
2023-05-26T04:40:21.264Z,8.72
2023-05-26T04:42:50.023Z,8.79
2023-05-26T04:45:16.929Z,8.84
2023-05-26T04:47:44.098Z,8.96
2023-05-26T04:50:13.815Z,8.91
2023-05-26T04:52:42.662Z,9.28
2023-05-26T04:55:10.743Z,9.19
2023-05-26T04:57:37.636Z,9.45
2023-05-26T05:00:11.724Z,9.61
2023-05-26T05:02:38.472Z,9.94
2023-05-26T05:05:07.494Z,10.10
2023-05-26T05:07:35.207Z,10.06
2023-05-26T05:10:01.889Z,10.18
2023-05-26T05:12:28.480Z,10.01
2023-05-26T05:14:56.214Z,9.87
2023-05-26T05:17:22.981Z,9.72
2023-05-26T05:19:54.223Z,10.00
2023-05-26T05:22:29.233Z,10.14
2023-05-26T05:24:56.158Z,10.06
2023-05-26T05:27:22.981Z,9.96
2023-05-26T05:29:49.685Z,9.94
2023-05-26T05:32:16.625Z,9.74
2023-05-26T05:34:44.274Z,9.62
2023-05-26T05:37:10.923Z,9.91
2023-05-26T05:39:37.714Z,10.12
2023-05-26T05:42:04.843Z,10.17
2023-05-26T05:44:31.530Z,10.03
2023-05-26T05:46:58.198Z,11.10
2023-05-26T05:49:27.027Z,11.47
2023-05-26T05:51:53.798Z,11.81
2023-05-26T05:54:20.558Z,11.48
2023-05-26T05:56:47.240Z,11.11
2023-05-26T05:59:13.930Z,11.30
2023-05-26T06:01:41.976Z,11.71
2023-05-26T06:04:08.810Z,11.44
2023-05-26T06:06:37.264Z,12.17
2023-05-26T06:09:04.902Z,13.07
2023-05-26T06:11:31.572Z,13.92
2023-05-26T06:13:58.177Z,13.33
2023-05-26T06:16:26.219Z,13.82
2023-05-26T06:18:53.009Z,13.79
2023-05-26T06:21:19.748Z,12.89
2023-05-26T06:23:46.576Z,12.04
2023-05-26T06:26:14.296Z,12.10
2023-05-26T06:28:41.487Z,11.99
2023-05-26T06:31:08.178Z,12.62
2023-05-26T06:33:34.882Z,12.63
2023-05-26T06:36:01.634Z,12.96
2023-05-26T06:38:28.427Z,12.57
2023-05-26T06:40:55.101Z,12.37
2023-05-26T06:43:21.806Z,12.41
2023-05-26T06:45:48.566Z,13.57
2023-05-26T06:48:15.239Z,13.93
2023-05-26T06:50:42.694Z,14.67
2023-05-26T06:53:09.496Z,13.88
2023-05-26T06:55:36.067Z,14.41
2023-05-26T06:58:02.720Z,14.40
2023-05-26T07:00:32.262Z,14.32
2023-05-26T07:02:59.068Z,14.20
2023-05-26T07:05:25.804Z,13.75
2023-05-26T07:07:52.555Z,14.96
2023-05-26T07:10:19.177Z,15.40
2023-05-26T07:12:45.830Z,16.31
2023-05-26T07:15:12.678Z,16.00
2023-05-26T07:17:39.509Z,15.91
2023-05-26T07:20:07.070Z,16.55
2023-05-26T07:22:33.768Z,16.13
2023-05-26T07:25:00.379Z,14.72
2023-05-26T07:27:27.420Z,14.07
2023-05-26T07:29:54.044Z,13.89
2023-05-26T07:32:20.919Z,14.90
2023-05-26T07:34:50.864Z,15.37
2023-05-26T07:37:18.100Z,15.61
2023-05-26T07:39:45.269Z,15.42
2023-05-26T07:42:12.339Z,14.84
2023-05-26T07:44:39.480Z,15.45
2023-05-26T07:47:06.924Z,15.25
2023-05-26T07:49:34.748Z,14.33
2023-05-26T07:52:01.784Z,14.37
2023-05-26T07:54:29.030Z,14.31
2023-05-26T07:56:56.184Z,14.07
2023-05-26T07:59:27.586Z,14.54
2023-05-26T08:01:56.084Z,14.22
2023-05-26T08:04:23.643Z,14.59
2023-05-26T08:06:50.911Z,14.47
2023-05-26T08:09:18.229Z,14.27
2023-05-26T08:11:45.055Z,14.22
2023-05-26T08:14:12.146Z,14.07
2023-05-26T08:16:39.002Z,13.89
2023-05-26T08:19:06.470Z,14.17
2023-05-26T08:21:36.152Z,15.01
2023-05-26T08:24:03.912Z,14.59
2023-05-26T08:26:30.747Z,14.86
2023-05-26T08:28:57.471Z,14.97
2023-05-26T08:31:24.079Z,14.76
2023-05-26T08:33:50.827Z,14.53
2023-05-26T08:36:17.494Z,15.10
2023-05-26T08:38:44.175Z,15.24
2023-05-26T08:41:14.953Z,14.89
2023-05-26T08:43:53.232Z,14.95
2023-05-26T08:46:21.294Z,15.13
2023-05-26T08:48:49.358Z,15.35
2023-05-26T08:51:16.130Z,15.39
2023-05-26T08:53:42.906Z,14.96
2023-05-26T08:56:10.710Z,14.92
2023-05-26T08:58:42.342Z,14.42
2023-05-26T09:01:09.553Z,14.41
2023-05-26T09:03:37.705Z,14.31
2023-05-26T09:06:04.541Z,14.70
2023-05-26T09:08:31.264Z,14.78
2023-05-26T09:10:57.925Z,14.60
2023-05-26T09:13:25.932Z,14.59
2023-05-26T09:16:02.748Z,14.51
2023-05-26T09:18:42.528Z,14.08
2023-05-26T09:21:09.248Z,14.22
2023-05-26T09:23:35.888Z,13.92
2023-05-26T09:26:07.437Z,13.63
2023-05-26T09:28:34.118Z,13.40
2023-05-26T09:31:00.839Z,13.53
2023-05-26T09:33:27.619Z,13.74
2023-05-26T09:35:55.305Z,13.87
2023-05-26T09:38:22.959Z,13.74
2023-05-26T09:40:50.663Z,13.61
2023-05-26T09:43:19.326Z,13.75
2023-05-26T09:45:46.090Z,14.39
2023-05-26T09:48:12.892Z,14.99
2023-05-26T09:50:40.926Z,15.41
2023-05-26T09:53:10.871Z,15.27
2023-05-26T09:55:40.303Z,15.12
2023-05-26T09:58:09.188Z,15.56
2023-05-26T10:00:42.555Z,16.18
2023-05-26T10:03:10.822Z,16.55
2023-05-26T10:05:40.320Z,16.38
2023-05-26T10:08:07.991Z,15.67
2023-05-26T10:10:35.684Z,15.83
2023-05-26T10:13:03.291Z,16.25
2023-05-26T10:15:30.142Z,16.08
2023-05-26T10:17:59.646Z,16.27
2023-05-26T10:20:27.253Z,15.76
2023-05-26T10:23:02.496Z,15.79
2023-05-26T10:25:53.462Z,16.06
2023-05-26T10:28:45.009Z,15.29
2023-05-26T10:31:12.457Z,15.51
2023-05-26T10:33:41.952Z,15.41
2023-05-26T10:36:18.934Z,15.05
2023-05-26T10:38:48.126Z,15.07
2023-05-26T10:41:36.354Z,15.08
2023-05-26T10:44:04.209Z,14.89
2023-05-26T10:46:47.334Z,14.79
2023-05-26T10:49:24.074Z,15.16
2023-05-26T10:51:53.657Z,15.67
2023-05-26T10:54:23.870Z,15.56
2023-05-26T10:56:53.841Z,15.64
2023-05-26T10:59:32.176Z,15.92
2023-05-26T11:02:04.852Z,16.06
2023-05-26T11:04:46.732Z,16.19
2023-05-26T11:07:19.824Z,16.28
2023-05-26T11:10:07.214Z,15.77
2023-05-26T11:12:48.762Z,15.58
2023-05-26T11:15:34.658Z,15.80
2023-05-26T11:18:03.705Z,15.90
2023-05-26T11:20:30.934Z,16.46
2023-05-26T11:22:57.885Z,16.62
2023-05-26T11:25:24.821Z,16.75
2023-05-26T11:27:52.955Z,16.89
2023-05-26T11:30:20.179Z,16.35
2023-05-26T11:33:00.787Z,16.29
2023-05-26T11:35:43.937Z,16.37
2023-05-26T11:41:00.395Z,16.29
2023-05-26T11:43:51.885Z,16.73
2023-05-26T11:46:43.276Z,17.11
2023-05-26T11:49:35.193Z,17.15
2023-05-26T11:52:24.722Z,16.78
2023-05-26T11:55:03.268Z,16.74
2023-05-26T11:57:50.086Z,16.51
2023-05-26T12:00:42.275Z,16.38
2023-05-26T12:03:26.062Z,16.34
2023-05-26T12:06:19.105Z,16.90
2023-05-26T12:09:20.015Z,16.93
2023-05-26T12:12:20.925Z,16.83
2023-05-26T12:14:54.921Z,16.93
2023-05-26T12:17:24.737Z,16.51
2023-05-26T12:20:03.136Z,16.38
2023-05-26T12:22:52.810Z,16.74
2023-05-26T12:26:04.514Z,16.61
2023-05-26T12:28:34.914Z,17.09
2023-05-26T12:31:06.517Z,17.39
2023-05-26T12:33:48.610Z,17.48
2023-05-26T12:36:18.547Z,17.41
2023-05-26T12:38:52.386Z,17.55
2023-05-26T12:41:28.788Z,17.60
2023-05-26T12:44:03.801Z,17.59
2023-05-26T12:46:35.489Z,17.73
2023-05-26T12:49:06.664Z,17.65
2023-05-26T12:51:54.465Z,17.66
2023-05-26T12:54:28.042Z,17.71
2023-05-26T12:57:10.524Z,17.44
2023-05-26T13:02:27.022Z,17.74
2023-05-26T13:05:03.677Z,17.89
2023-05-26T13:07:58.697Z,17.54
2023-05-26T13:11:29.432Z,18.15
2023-05-26T13:13:36.119Z,18.00
2023-05-26T13:16:20.804Z,18.37
2023-05-26T13:19:08.477Z,18.50
2023-05-26T13:21:46.486Z,18.68
2023-05-26T13:24:35.106Z,18.34
2023-05-26T13:27:22.470Z,18.47
2023-05-26T13:29:57.129Z,18.52
2023-05-26T13:32:26.747Z,18.53
2023-05-26T13:35:15.518Z,18.40
2023-05-26T13:37:48.661Z,18.59
2023-05-26T13:40:24.686Z,18.43
2023-05-26T13:45:48.827Z,18.24
2023-05-26T13:48:26.254Z,18.08
2023-05-26T13:51:00.527Z,18.18
2023-05-26T13:53:38.847Z,18.32
2023-05-26T13:56:27.035Z,18.03
2023-05-26T13:59:15.146Z,18.00
2023-05-26T14:02:08.874Z,18.11
2023-05-26T14:05:00.249Z,17.61
2023-05-26T14:07:30.936Z,17.68
2023-05-26T14:10:09.165Z,17.44
2023-05-26T14:12:42.869Z,17.81
2023-05-26T14:15:12.937Z,17.94
2023-05-26T14:21:37.774Z,18.16
2023-05-26T14:23:24.369Z,18.16
2023-05-26T14:25:54.817Z,18.32
2023-05-26T14:28:29.770Z,18.52
2023-05-26T14:31:04.184Z,18.68
2023-05-26T14:34:03.832Z,18.64
2023-05-26T14:36:35.338Z,18.51
2023-05-26T14:39:17.581Z,18.52
2023-05-26T14:41:47.456Z,18.11
2023-05-26T14:44:15.163Z,18.47
2023-05-26T14:46:46.993Z,18.46
2023-05-26T14:49:32.958Z,18.22
2023-05-26T14:52:02.959Z,18.10
2023-05-26T14:54:33.479Z,18.16
2023-05-26T14:57:27.394Z,18.07
2023-05-26T15:00:00.254Z,18.07
2023-05-26T15:02:32.848Z,17.71
2023-05-26T15:05:04.920Z,17.87
2023-05-26T15:07:32.351Z,17.69
2023-05-26T15:10:04.255Z,18.21
2023-05-26T15:13:03.439Z,17.93
2023-05-26T15:15:56.688Z,18.09
2023-05-26T15:18:24.066Z,17.77
2023-05-26T15:21:16.797Z,17.76
2023-05-26T15:23:56.790Z,17.78
2023-05-26T15:26:34.268Z,17.46
2023-05-26T15:29:08.812Z,17.57
2023-05-26T15:31:43.544Z,17.61
2023-05-26T15:34:15.248Z,17.52
2023-05-26T15:36:54.354Z,17.60
2023-05-26T15:42:28.210Z,17.41
2023-05-26T15:45:05.542Z,17.38
2023-05-26T15:47:41.183Z,17.41
2023-05-26T15:50:16.476Z,17.40
2023-05-26T15:52:47.887Z,17.56
2023-05-26T15:55:18.056Z,17.71
2023-05-26T15:57:48.709Z,17.68
2023-05-26T16:00:20.258Z,17.54
2023-05-26T16:02:50.488Z,17.47
2023-05-26T16:05:20.593Z,17.38
2023-05-26T16:07:55.177Z,17.03
2023-05-26T16:10:31.378Z,16.98
2023-05-26T16:13:08.842Z,17.22
2023-05-26T16:15:54.138Z,17.13
2023-05-26T16:18:24.545Z,17.21
2023-05-26T16:20:51.989Z,17.26
2023-05-26T16:23:29.676Z,17.00
2023-05-26T16:26:02.028Z,16.89
2023-05-26T16:28:34.250Z,17.05
2023-05-26T16:31:04.841Z,16.89
2023-05-26T16:33:36.205Z,16.68
2023-05-26T16:36:21.479Z,16.78
2023-05-26T16:39:03.436Z,16.77
2023-05-26T16:41:35.553Z,16.61
2023-05-26T16:44:08.014Z,16.60
2023-05-26T16:46:58.542Z,16.67
2023-05-26T16:49:26.867Z,16.67
2023-05-26T16:52:00.333Z,16.60
2023-05-26T16:54:39.181Z,16.63
2023-05-26T16:57:12.342Z,16.59
2023-05-26T16:59:56.098Z,16.59
2023-05-26T17:02:35.826Z,16.43
2023-05-26T17:05:11.757Z,16.32
2023-05-26T17:07:51.084Z,16.16
2023-05-26T17:10:24.172Z,16.11
2023-05-26T17:13:00.215Z,15.89
2023-05-26T17:15:30.738Z,15.88
2023-05-26T17:18:12.895Z,15.81
2023-05-26T17:20:43.265Z,15.80
2023-05-26T17:23:16.864Z,15.76
2023-05-26T17:25:57.738Z,15.88
2023-05-26T17:28:28.037Z,15.76
2023-05-26T17:31:00.364Z,15.66
2023-05-26T17:33:29.144Z,15.39
2023-05-26T17:35:58.820Z,15.51
2023-05-26T17:38:27.191Z,15.43
2023-05-26T17:40:54.357Z,15.44
2023-05-26T17:43:28.045Z,15.29
2023-05-26T17:46:02.738Z,15.10
2023-05-26T17:48:35.256Z,15.08
2023-05-26T17:51:04.884Z,15.01
2023-05-26T17:53:46.630Z,14.88
2023-05-26T17:56:18.559Z,14.61
2023-05-26T17:58:54.875Z,14.66
2023-05-26T18:01:22.613Z,14.35
2023-05-26T18:03:52.743Z,14.28
2023-05-26T18:06:19.989Z,13.82
2023-05-26T18:08:47.313Z,13.81
2023-05-26T18:11:14.557Z,13.64
2023-05-26T18:13:44.894Z,13.47
2023-05-26T18:16:17.610Z,13.32
2023-05-26T18:18:50.043Z,13.19
2023-05-26T18:21:30.825Z,12.89
2023-05-26T18:23:59.977Z,13.10
2023-05-26T18:26:31.177Z,13.07
2023-05-26T18:28:59.867Z,13.01
2023-05-26T18:31:30.951Z,12.95
2023-05-26T18:34:06.747Z,12.87
2023-05-26T18:36:45.846Z,12.72
2023-05-26T18:39:15.750Z,12.49
2023-05-26T18:41:46.273Z,12.45
2023-05-26T18:44:20.414Z,12.15
2023-05-26T18:46:49.905Z,12.08
2023-05-26T18:49:22.759Z,11.87
2023-05-26T18:51:49.867Z,11.69
2023-05-26T18:54:17.678Z,11.53
2023-05-26T18:56:45.148Z,11.37
2023-05-26T18:59:16.143Z,11.17
2023-05-26T19:01:43.771Z,10.73
2023-05-26T19:04:18.771Z,10.82
2023-05-26T19:06:45.853Z,10.61
2023-05-26T19:09:13.867Z,10.53
2023-05-26T19:11:48.676Z,9.71
2023-05-26T19:14:15.904Z,9.74
2023-05-26T19:16:51.999Z,9.76
2023-05-26T19:19:23.462Z,10.01
2023-05-26T19:21:51.272Z,9.67
2023-05-26T19:24:19.111Z,9.81
2023-05-26T19:26:47.929Z,9.76
2023-05-26T19:29:18.029Z,9.69
2023-05-26T19:31:50.506Z,9.60
2023-05-26T19:34:17.699Z,9.40
2023-05-26T19:36:49.481Z,9.22
2023-05-26T19:39:16.503Z,8.98
2023-05-26T19:41:47.947Z,9.04
2023-05-26T19:44:17.851Z,9.20
2023-05-26T19:46:45.179Z,9.22
2023-05-26T19:49:14.601Z,9.15
2023-05-26T19:51:44.266Z,9.14
2023-05-26T19:54:13.257Z,8.99
2023-05-26T19:56:40.899Z,8.93
2023-05-26T19:59:08.962Z,8.79
2023-05-26T20:01:35.766Z,8.56
2023-05-26T20:04:02.534Z,8.50
2023-05-26T20:06:30.539Z,8.36
2023-05-26T20:08:57.258Z,8.20
2023-05-26T20:11:24.049Z,8.11
2023-05-26T20:13:51.315Z,8.31
2023-05-26T20:16:18.031Z,8.19
2023-05-26T20:18:45.050Z,8.05
2023-05-26T20:21:12.154Z,8.00
2023-05-26T20:23:39.232Z,8.03
2023-05-26T20:26:06.523Z,7.86
2023-05-26T20:28:33.576Z,7.99
2023-05-26T20:31:01.859Z,8.04
2023-05-26T20:33:28.682Z,7.89
2023-05-26T20:35:55.719Z,7.78
2023-05-26T20:38:22.539Z,7.67
2023-05-26T20:40:49.291Z,7.61
2023-05-26T20:43:16.064Z,7.56
2023-05-26T20:45:42.802Z,7.43
2023-05-26T20:48:09.602Z,7.40
2023-05-26T20:50:36.846Z,7.30
2023-05-26T20:53:03.583Z,7.18
2023-05-26T20:55:33.172Z,7.06
2023-05-26T20:57:59.815Z,6.86
2023-05-26T21:00:27.338Z,6.88
2023-05-26T21:02:54.167Z,6.73
2023-05-26T21:05:21.133Z,6.76
2023-05-26T21:07:48.024Z,6.68
2023-05-26T21:10:14.771Z,6.56
2023-05-26T21:12:41.772Z,6.56
2023-05-26T21:15:09.188Z,6.49
2023-05-26T21:17:35.940Z,6.46
2023-05-26T21:20:03.817Z,6.47
2023-05-26T21:22:31.647Z,6.47
2023-05-26T21:24:58.362Z,6.33
2023-05-26T21:27:25.017Z,6.32
2023-05-26T21:29:51.725Z,6.28
2023-05-26T21:32:18.466Z,6.20
2023-05-26T21:34:45.093Z,6.14
2023-05-26T21:37:14.957Z,6.13
2023-05-26T21:39:44.809Z,6.03
2023-05-26T21:42:12.012Z,5.95
2023-05-26T21:44:38.673Z,5.88
2023-05-26T21:47:05.571Z,5.99
2023-05-26T21:49:32.236Z,6.24
2023-05-26T21:51:58.943Z,6.32
2023-05-26T21:54:25.900Z,6.20
2023-05-26T21:56:52.588Z,6.06
2023-05-26T21:59:19.330Z,6.24
2023-05-26T22:01:46.071Z,6.27
2023-05-26T22:04:12.780Z,6.06
2023-05-26T22:06:39.450Z,5.91
2023-05-26T22:09:06.533Z,5.86
2023-05-26T22:11:33.182Z,5.78
2023-05-26T22:14:01.042Z,5.66
2023-05-26T22:16:29.444Z,5.53
2023-05-26T22:18:56.314Z,5.55
2023-05-26T22:21:22.923Z,5.45
2023-05-26T22:23:49.719Z,5.33
2023-05-26T22:26:16.461Z,5.21
2023-05-26T22:28:43.160Z,5.08
2023-05-26T22:31:09.778Z,5.10
2023-05-26T22:33:36.564Z,5.05
2023-05-26T22:36:03.344Z,4.89
2023-05-26T22:38:30.096Z,4.77
2023-05-26T22:40:56.951Z,4.75
2023-05-26T22:43:23.649Z,4.81
2023-05-26T22:45:50.547Z,4.69
2023-05-26T22:48:17.404Z,4.61
2023-05-26T22:50:44.132Z,4.57
2023-05-26T22:53:11.090Z,4.77
2023-05-26T22:55:46.946Z,4.71
2023-05-26T22:58:15.953Z,4.62
2023-05-26T23:00:42.749Z,4.53
2023-05-26T23:03:09.637Z,4.59
2023-05-26T23:05:36.684Z,4.73
2023-05-26T23:08:03.356Z,4.59
2023-05-26T23:10:30.004Z,4.47
2023-05-26T23:12:56.657Z,4.38
2023-05-26T23:15:23.433Z,4.31
2023-05-26T23:17:51.723Z,4.20
2023-05-26T23:20:19.023Z,4.12
2023-05-26T23:22:45.675Z,4.30
2023-05-26T23:25:15.855Z,4.34
2023-05-26T23:27:42.553Z,4.23
2023-05-26T23:30:09.800Z,4.12
2023-05-26T23:32:37.038Z,4.08
2023-05-26T23:35:04.032Z,4.07
2023-05-26T23:37:31.227Z,3.92
2023-05-26T23:39:58.104Z,3.86
2023-05-26T23:42:24.863Z,3.78
2023-05-26T23:44:52.523Z,3.72
2023-05-26T23:47:19.343Z,3.79
2023-05-26T23:49:46.081Z,3.74
2023-05-26T23:52:12.817Z,3.67
2023-05-26T23:54:39.526Z,3.62
2023-05-26T23:57:06.985Z,3.67
2023-05-26T23:59:33.697Z,3.60
